sensor_id;sensor_type;location;lat;lon;timestamp;P1;durP1;ratioP1;P2;durP2;ratioP2
21299;SDS011;10809;49.476;11.016;2023-05-07T00:01:53;0.70;;;0.70;;
21299;SDS011;10809;49.476;11.016;2023-05-07T00:04:27;0.60;;;0.60;;
21299;SDS011;10809;49.476;11.016;2023-05-07T00:06:58;1.27;;;0.70;;
21299;SDS011;10809;49.476;11.016;2023-05-07T00:09:35;0.88;;;0.88;;
21299;SDS011;10809;49.476;11.016;2023-05-07T00:12:06;0.80;;;0.80;;
21299;SDS011;10809;49.476;11.016;2023-05-07T00:14:37;1.05;;;0.80;;
21299;SDS011;10809;49.476;11.016;2023-05-07T00:17:09;2.67;;;0.85;;
21299;SDS011;10809;49.476;11.016;2023-05-07T00:19:46;2.88;;;0.70;;
21299;SDS011;10809;49.476;11.016;2023-05-07T00:22:20;1.20;;;0.70;;
21299;SDS011;10809;49.476;11.016;2023-05-07T00:24:51;0.57;;;0.57;;
21299;SDS011;10809;49.476;11.016;2023-05-07T00:27:22;0.88;;;0.88;;
21299;SDS011;10809;49.476;11.016;2023-05-07T00:29:53;1.17;;;0.80;;
21299;SDS011;10809;49.476;11.016;2023-05-07T00:32:26;1.70;;;0.73;;
21299;SDS011;10809;49.476;11.016;2023-05-07T00:34:57;1.17;;;0.70;;
21299;SDS011;10809;49.476;11.016;2023-05-07T00:37:27;0.85;;;0.80;;
21299;SDS011;10809;49.476;11.016;2023-05-07T00:40:04;1.60;;;0.80;;
21299;SDS011;10809;49.476;11.016;2023-05-07T00:42:43;1.02;;;0.93;;
21299;SDS011;10809;49.476;11.016;2023-05-07T00:45:17;1.10;;;1.08;;
21299;SDS011;10809;49.476;11.016;2023-05-07T00:47:47;2.53;;;0.90;;
21299;SDS011;10809;49.476;11.016;2023-05-07T00:50:18;0.80;;;0.80;;
21299;SDS011;10809;49.476;11.016;2023-05-07T00:52:49;1.20;;;0.90;;
21299;SDS011;10809;49.476;11.016;2023-05-07T00:55:20;1.38;;;0.90;;
21299;SDS011;10809;49.476;11.016;2023-05-07T00:57:57;1.20;;;0.90;;
21299;SDS011;10809;49.476;11.016;2023-05-07T01:00:28;1.00;;;0.90;;
21299;SDS011;10809;49.476;11.016;2023-05-07T01:02:59;1.20;;;1.02;;
21299;SDS011;10809;49.476;11.016;2023-05-07T01:05:30;1.25;;;0.90;;
21299;SDS011;10809;49.476;11.016;2023-05-07T01:08:01;0.95;;;0.80;;
21299;SDS011;10809;49.476;11.016;2023-05-07T01:10:45;1.45;;;0.70;;
21299;SDS011;10809;49.476;11.016;2023-05-07T01:13:17;0.60;;;0.60;;
21299;SDS011;10809;49.476;11.016;2023-05-07T01:15:51;0.50;;;0.50;;
21299;SDS011;10809;49.476;11.016;2023-05-07T01:18:22;0.60;;;0.60;;
21299;SDS011;10809;49.476;11.016;2023-05-07T01:20:53;0.55;;;0.55;;
21299;SDS011;10809;49.476;11.016;2023-05-07T01:23:25;0.57;;;0.57;;
21299;SDS011;10809;49.476;11.016;2023-05-07T01:26:04;0.82;;;0.60;;
21299;SDS011;10809;49.476;11.016;2023-05-07T01:28:36;0.70;;;0.70;;
21299;SDS011;10809;49.476;11.016;2023-05-07T01:31:10;0.50;;;0.50;;
21299;SDS011;10809;49.476;11.016;2023-05-07T01:33:44;0.40;;;0.40;;
21299;SDS011;10809;49.476;11.016;2023-05-07T01:36:18;0.75;;;0.70;;
21299;SDS011;10809;49.476;11.016;2023-05-07T01:38:51;0.63;;;0.63;;
21299;SDS011;10809;49.476;11.016;2023-05-07T01:41:22;0.47;;;0.47;;
21299;SDS011;10809;49.476;11.016;2023-05-07T01:44:05;0.60;;;0.60;;
21299;SDS011;10809;49.476;11.016;2023-05-07T01:46:36;0.65;;;0.65;;
21299;SDS011;10809;49.476;11.016;2023-05-07T01:49:10;0.70;;;0.70;;
21299;SDS011;10809;49.476;11.016;2023-05-07T01:51:40;0.68;;;0.68;;
21299;SDS011;10809;49.476;11.016;2023-05-07T01:54:11;0.60;;;0.60;;
21299;SDS011;10809;49.476;11.016;2023-05-07T01:56:42;0.68;;;0.68;;
21299;SDS011;10809;49.476;11.016;2023-05-07T01:59:16;0.70;;;0.70;;
21299;SDS011;10809;49.476;11.016;2023-05-07T02:01:49;0.70;;;0.70;;
21299;SDS011;10809;49.476;11.016;2023-05-07T02:04:20;0.52;;;0.52;;
21299;SDS011;10809;49.476;11.016;2023-05-07T02:06:53;0.73;;;0.70;;
21299;SDS011;10809;49.476;11.016;2023-05-07T02:09:25;0.90;;;0.90;;
21299;SDS011;10809;49.476;11.016;2023-05-07T02:11:59;0.68;;;0.68;;
21299;SDS011;10809;49.476;11.016;2023-05-07T02:14:30;0.65;;;0.65;;
21299;SDS011;10809;49.476;11.016;2023-05-07T02:17:09;1.75;;;0.70;;
21299;SDS011;10809;49.476;11.016;2023-05-07T02:19:43;0.75;;;0.75;;
21299;SDS011;10809;49.476;11.016;2023-05-07T02:22:17;1.27;;;1.17;;
21299;SDS011;10809;49.476;11.016;2023-05-07T02:24:51;0.80;;;0.80;;
21299;SDS011;10809;49.476;11.016;2023-05-07T02:27:21;1.10;;;1.00;;
21299;SDS011;10809;49.476;11.016;2023-05-07T02:29:52;1.02;;;0.95;;
21299;SDS011;10809;49.476;11.016;2023-05-07T02:32:22;0.93;;;0.93;;
21299;SDS011;10809;49.476;11.016;2023-05-07T02:35:09;0.80;;;0.80;;
21299;SDS011;10809;49.476;11.016;2023-05-07T02:37:43;0.82;;;0.82;;
21299;SDS011;10809;49.476;11.016;2023-05-07T02:40:13;0.68;;;0.68;;
21299;SDS011;10809;49.476;11.016;2023-05-07T02:42:44;2.97;;;0.80;;
21299;SDS011;10809;49.476;11.016;2023-05-07T02:45:14;1.17;;;0.93;;
21299;SDS011;10809;49.476;11.016;2023-05-07T02:47:49;0.80;;;0.80;;
21299;SDS011;10809;49.476;11.016;2023-05-07T02:50:20;1.00;;;1.00;;
21299;SDS011;10809;49.476;11.016;2023-05-07T02:52:50;1.10;;;1.10;;
21299;SDS011;10809;49.476;11.016;2023-05-07T02:55:21;1.25;;;1.10;;
21299;SDS011;10809;49.476;11.016;2023-05-07T02:57:52;0.80;;;0.80;;
21299;SDS011;10809;49.476;11.016;2023-05-07T03:00:23;1.20;;;1.10;;
21299;SDS011;10809;49.476;11.016;2023-05-07T03:03:03;1.05;;;1.02;;
21299;SDS011;10809;49.476;11.016;2023-05-07T03:05:34;1.40;;;1.30;;
21299;SDS011;10809;49.476;11.016;2023-05-07T03:08:04;1.33;;;1.23;;
21299;SDS011;10809;49.476;11.016;2023-05-07T03:10:35;1.47;;;1.37;;
21299;SDS011;10809;49.476;11.016;2023-05-07T03:13:06;1.00;;;0.90;;
21299;SDS011;10809;49.476;11.016;2023-05-07T03:15:43;1.00;;;1.00;;
21299;SDS011;10809;49.476;11.016;2023-05-07T03:18:13;1.10;;;1.10;;
21299;SDS011;10809;49.476;11.016;2023-05-07T03:20:44;1.20;;;1.10;;
21299;SDS011;10809;49.476;11.016;2023-05-07T03:23:18;3.20;;;1.20;;
21299;SDS011;10809;49.476;11.016;2023-05-07T03:25:48;1.13;;;1.13;;
21299;SDS011;10809;49.476;11.016;2023-05-07T03:28:19;1.50;;;1.40;;
21299;SDS011;10809;49.476;11.016;2023-05-07T03:30:55;1.30;;;1.10;;
21299;SDS011;10809;49.476;11.016;2023-05-07T03:33:29;1.30;;;1.10;;
21299;SDS011;10809;49.476;11.016;2023-05-07T03:36:00;1.60;;;1.50;;
21299;SDS011;10809;49.476;11.016;2023-05-07T03:38:44;2.07;;;1.53;;
21299;SDS011;10809;49.476;11.016;2023-05-07T03:41:15;1.57;;;1.47;;
21299;SDS011;10809;49.476;11.016;2023-05-07T03:43:48;1.53;;;1.43;;
21299;SDS011;10809;49.476;11.016;2023-05-07T03:46:19;1.57;;;1.47;;
21299;SDS011;10809;49.476;11.016;2023-05-07T03:48:49;2.37;;;1.87;;
21299;SDS011;10809;49.476;11.016;2023-05-07T03:51:23;2.10;;;1.60;;
21299;SDS011;10809;49.476;11.016;2023-05-07T03:53:53;1.27;;;1.17;;
21299;SDS011;10809;49.476;11.016;2023-05-07T03:56:25;1.47;;;1.33;;
21299;SDS011;10809;49.476;11.016;2023-05-07T03:59:05;1.53;;;1.43;;
21299;SDS011;10809;49.476;11.016;2023-05-07T04:01:35;1.63;;;1.53;;
21299;SDS011;10809;49.476;11.016;2023-05-07T04:04:12;1.83;;;1.33;;
21299;SDS011;10809;49.476;11.016;2023-05-07T04:06:46;2.47;;;1.47;;
21299;SDS011;10809;49.476;11.016;2023-05-07T04:09:17;1.43;;;1.33;;
21299;SDS011;10809;49.476;11.016;2023-05-07T04:11:50;1.50;;;1.40;;
21299;SDS011;10809;49.476;11.016;2023-05-07T04:14:20;1.50;;;1.40;;
21299;SDS011;10809;49.476;11.016;2023-05-07T04:17:00;1.70;;;1.60;;
21299;SDS011;10809;49.476;11.016;2023-05-07T04:19:35;1.70;;;1.60;;
21299;SDS011;10809;49.476;11.016;2023-05-07T04:22:05;1.50;;;1.40;;
21299;SDS011;10809;49.476;11.016;2023-05-07T04:24:36;1.80;;;1.70;;
21299;SDS011;10809;49.476;11.016;2023-05-07T04:27:07;1.50;;;1.40;;
21299;SDS011;10809;49.476;11.016;2023-05-07T04:29:38;1.50;;;1.40;;
21299;SDS011;10809;49.476;11.016;2023-05-07T04:32:13;1.70;;;1.50;;
21299;SDS011;10809;49.476;11.016;2023-05-07T04:34:45;1.57;;;1.47;;
21299;SDS011;10809;49.476;11.016;2023-05-07T04:37:16;1.50;;;1.40;;
21299;SDS011;10809;49.476;11.016;2023-05-07T04:39:47;1.57;;;1.47;;
21299;SDS011;10809;49.476;11.016;2023-05-07T04:42:18;2.10;;;1.90;;
21299;SDS011;10809;49.476;11.016;2023-05-07T04:44:52;1.97;;;1.70;;
21299;SDS011;10809;49.476;11.016;2023-05-07T04:47:23;2.23;;;1.83;;
21299;SDS011;10809;49.476;11.016;2023-05-07T04:49:55;1.80;;;1.70;;
21299;SDS011;10809;49.476;11.016;2023-05-07T04:52:25;2.13;;;1.80;;
21299;SDS011;10809;49.476;11.016;2023-05-07T04:55:03;2.07;;;1.87;;
21299;SDS011;10809;49.476;11.016;2023-05-07T04:57:42;2.03;;;1.93;;
21299;SDS011;10809;49.476;11.016;2023-05-07T05:00:15;2.67;;;2.33;;
21299;SDS011;10809;49.476;11.016;2023-05-07T05:02:49;2.20;;;2.10;;
21299;SDS011;10809;49.476;11.016;2023-05-07T05:05:23;2.47;;;2.00;;
21299;SDS011;10809;49.476;11.016;2023-05-07T05:07:56;2.07;;;1.93;;
21299;SDS011;10809;49.476;11.016;2023-05-07T05:10:27;2.53;;;2.00;;
21299;SDS011;10809;49.476;11.016;2023-05-07T05:13:05;3.17;;;2.10;;
21299;SDS011;10809;49.476;11.016;2023-05-07T05:15:36;4.27;;;2.07;;
21299;SDS011;10809;49.476;11.016;2023-05-07T05:18:07;2.33;;;2.13;;
21299;SDS011;10809;49.476;11.016;2023-05-07T05:20:44;2.50;;;2.20;;
21299;SDS011;10809;49.476;11.016;2023-05-07T05:23:16;3.10;;;1.90;;
21299;SDS011;10809;49.476;11.016;2023-05-07T05:25:46;3.23;;;1.83;;
21299;SDS011;10809;49.476;11.016;2023-05-07T05:28:18;1.90;;;1.80;;
21299;SDS011;10809;49.476;11.016;2023-05-07T05:30:48;2.30;;;2.10;;
21299;SDS011;10809;49.476;11.016;2023-05-07T05:33:23;2.17;;;1.97;;
21299;SDS011;10809;49.476;11.016;2023-05-07T05:35:53;1.90;;;1.80;;
21299;SDS011;10809;49.476;11.016;2023-05-07T05:38:24;2.37;;;2.17;;
21299;SDS011;10809;49.476;11.016;2023-05-07T05:41:02;2.20;;;2.00;;
21299;SDS011;10809;49.476;11.016;2023-05-07T05:43:34;2.15;;;2.03;;
21299;SDS011;10809;49.476;11.016;2023-05-07T05:46:07;1.87;;;1.77;;
21299;SDS011;10809;49.476;11.016;2023-05-07T05:48:44;2.90;;;2.57;;
21299;SDS011;10809;49.476;11.016;2023-05-07T05:51:15;2.90;;;2.07;;
21299;SDS011;10809;49.476;11.016;2023-05-07T05:53:46;2.10;;;1.90;;
21299;SDS011;10809;49.476;11.016;2023-05-07T05:56:17;2.17;;;1.88;;
21299;SDS011;10809;49.476;11.016;2023-05-07T05:58:53;1.73;;;1.63;;
21299;SDS011;10809;49.476;11.016;2023-05-07T06:01:24;2.53;;;2.33;;
21299;SDS011;10809;49.476;11.016;2023-05-07T06:03:56;2.40;;;2.20;;
21299;SDS011;10809;49.476;11.016;2023-05-07T06:06:27;2.40;;;2.20;;
21299;SDS011;10809;49.476;11.016;2023-05-07T06:09:01;2.17;;;1.97;;
21299;SDS011;10809;49.476;11.016;2023-05-07T06:11:42;2.37;;;2.17;;
21299;SDS011;10809;49.476;11.016;2023-05-07T06:14:14;2.67;;;2.20;;
21299;SDS011;10809;49.476;11.016;2023-05-07T06:16:44;2.63;;;2.42;;
21299;SDS011;10809;49.476;11.016;2023-05-07T06:19:18;2.47;;;2.27;;
21299;SDS011;10809;49.476;11.016;2023-05-07T06:21:53;2.50;;;2.30;;
21299;SDS011;10809;49.476;11.016;2023-05-07T06:24:24;3.43;;;2.00;;
21299;SDS011;10809;49.476;11.016;2023-05-07T06:26:54;2.13;;;1.98;;
21299;SDS011;10809;49.476;11.016;2023-05-07T06:29:28;2.17;;;2.03;;
21299;SDS011;10809;49.476;11.016;2023-05-07T06:34:51;1.60;;;1.52;;
21299;SDS011;10809;49.476;11.016;2023-05-07T06:37:30;2.15;;;2.05;;
21299;SDS011;10809;49.476;11.016;2023-05-07T06:40:10;1.85;;;1.75;;
21299;SDS011;10809;49.476;11.016;2023-05-07T06:42:43;3.15;;;1.90;;
21299;SDS011;10809;49.476;11.016;2023-05-07T06:45:43;2.13;;;2.03;;
21299;SDS011;10809;49.476;11.016;2023-05-07T06:48:14;2.30;;;2.13;;
21299;SDS011;10809;49.476;11.016;2023-05-07T06:50:55;2.25;;;2.05;;
21299;SDS011;10809;49.476;11.016;2023-05-07T06:53:28;2.65;;;2.45;;
21299;SDS011;10809;49.476;11.016;2023-05-07T06:56:00;1.95;;;1.85;;
21299;SDS011;10809;49.476;11.016;2023-05-07T06:58:30;2.40;;;2.20;;
21299;SDS011;10809;49.476;11.016;2023-05-07T07:01:01;1.92;;;1.83;;
21299;SDS011;10809;49.476;11.016;2023-05-07T07:03:31;2.08;;;1.98;;
21299;SDS011;10809;49.476;11.016;2023-05-07T07:06:02;1.92;;;1.80;;
21299;SDS011;10809;49.476;11.016;2023-05-07T07:08:33;3.55;;;2.47;;
21299;SDS011;10809;49.476;11.016;2023-05-07T07:11:05;2.13;;;1.92;;
21299;SDS011;10809;49.476;11.016;2023-05-07T07:13:45;2.70;;;2.10;;
21299;SDS011;10809;49.476;11.016;2023-05-07T07:16:15;3.22;;;2.13;;
21299;SDS011;10809;49.476;11.016;2023-05-07T07:18:49;1.90;;;1.80;;
21299;SDS011;10809;49.476;11.016;2023-05-07T07:21:23;2.20;;;2.00;;
21299;SDS011;10809;49.476;11.016;2023-05-07T07:23:53;1.80;;;1.70;;
21299;SDS011;10809;49.476;11.016;2023-05-07T07:26:31;1.80;;;1.70;;
21299;SDS011;10809;49.476;11.016;2023-05-07T07:29:04;2.05;;;1.90;;
21299;SDS011;10809;49.476;11.016;2023-05-07T07:31:35;5.85;;;2.05;;
21299;SDS011;10809;49.476;11.016;2023-05-07T07:34:06;2.40;;;1.90;;
21299;SDS011;10809;49.476;11.016;2023-05-07T07:36:37;1.92;;;1.83;;
21299;SDS011;10809;49.476;11.016;2023-05-07T07:39:07;3.55;;;2.10;;
21299;SDS011;10809;49.476;11.016;2023-05-07T07:41:44;1.60;;;1.50;;
21299;SDS011;10809;49.476;11.016;2023-05-07T07:44:16;1.92;;;1.83;;
21299;SDS011;10809;49.476;11.016;2023-05-07T07:46:52;1.80;;;1.70;;
21299;SDS011;10809;49.476;11.016;2023-05-07T07:49:24;1.75;;;1.65;;
21299;SDS011;10809;49.476;11.016;2023-05-07T07:51:55;3.15;;;1.55;;
21299;SDS011;10809;49.476;11.016;2023-05-07T07:54:33;8.35;;;2.20;;
21299;SDS011;10809;49.476;11.016;2023-05-07T07:57:04;2.35;;;2.00;;
21299;SDS011;10809;49.476;11.016;2023-05-07T07:59:46;2.70;;;1.90;;
21299;SDS011;10809;49.476;11.016;2023-05-07T08:02:18;2.20;;;2.03;;
21299;SDS011;10809;49.476;11.016;2023-05-07T08:04:49;2.70;;;2.00;;
21299;SDS011;10809;49.476;11.016;2023-05-07T08:07:21;2.35;;;2.15;;
21299;SDS011;10809;49.476;11.016;2023-05-07T08:09:53;1.85;;;1.75;;
21299;SDS011;10809;49.476;11.016;2023-05-07T08:12:26;2.40;;;2.20;;
21299;SDS011;10809;49.476;11.016;2023-05-07T08:15:01;2.47;;;2.20;;
21299;SDS011;10809;49.476;11.016;2023-05-07T08:17:31;4.35;;;1.85;;
21299;SDS011;10809;49.476;11.016;2023-05-07T08:20:02;2.50;;;2.00;;
21299;SDS011;10809;49.476;11.016;2023-05-07T08:22:34;1.70;;;1.60;;
21299;SDS011;10809;49.476;11.016;2023-05-07T08:25:12;1.88;;;1.70;;
21299;SDS011;10809;49.476;11.016;2023-05-07T08:27:45;2.78;;;1.88;;
21299;SDS011;10809;49.476;11.016;2023-05-07T08:30:16;1.98;;;1.88;;
21299;SDS011;10809;49.476;11.016;2023-05-07T08:32:48;2.47;;;2.03;;
21299;SDS011;10809;49.476;11.016;2023-05-07T08:35:19;1.92;;;1.80;;
21299;SDS011;10809;49.476;11.016;2023-05-07T08:37:53;2.05;;;1.77;;
21299;SDS011;10809;49.476;11.016;2023-05-07T08:40:25;1.70;;;1.60;;
21299;SDS011;10809;49.476;11.016;2023-05-07T08:43:05;2.03;;;1.92;;
21299;SDS011;10809;49.476;11.016;2023-05-07T08:45:45;2.05;;;1.85;;
21299;SDS011;10809;49.476;11.016;2023-05-07T08:48:17;1.63;;;1.52;;
21299;SDS011;10809;49.476;11.016;2023-05-07T08:50:57;2.00;;;1.90;;
21299;SDS011;10809;49.476;11.016;2023-05-07T08:53:36;2.28;;;2.08;;
21299;SDS011;10809;49.476;11.016;2023-05-07T08:56:09;2.03;;;1.92;;
21299;SDS011;10809;49.476;11.016;2023-05-07T08:58:47;1.70;;;1.60;;
21299;SDS011;10809;49.476;11.016;2023-05-07T09:01:18;2.17;;;1.50;;
21299;SDS011;10809;49.476;11.016;2023-05-07T09:03:54;2.40;;;1.55;;
21299;SDS011;10809;49.476;11.016;2023-05-07T09:06:26;1.75;;;1.65;;
21299;SDS011;10809;49.476;11.016;2023-05-07T09:08:57;2.78;;;1.38;;
21299;SDS011;10809;49.476;11.016;2023-05-07T09:11:32;2.47;;;2.05;;
21299;SDS011;10809;49.476;11.016;2023-05-07T09:14:05;1.70;;;1.60;;
21299;SDS011;10809;49.476;11.016;2023-05-07T09:16:41;1.92;;;1.83;;
21299;SDS011;10809;49.476;11.016;2023-05-07T09:19:12;1.80;;;1.70;;
21299;SDS011;10809;49.476;11.016;2023-05-07T09:21:47;2.10;;;2.00;;
21299;SDS011;10809;49.476;11.016;2023-05-07T09:24:19;1.80;;;1.70;;
21299;SDS011;10809;49.476;11.016;2023-05-07T09:26:49;1.85;;;1.75;;
21299;SDS011;10809;49.476;11.016;2023-05-07T09:29:20;1.70;;;1.60;;
21299;SDS011;10809;49.476;11.016;2023-05-07T09:31:51;1.45;;;1.30;;
21299;SDS011;10809;49.476;11.016;2023-05-07T09:34:25;1.60;;;1.50;;
21299;SDS011;10809;49.476;11.016;2023-05-07T09:36:58;1.63;;;1.52;;
21299;SDS011;10809;49.476;11.016;2023-05-07T09:39:44;1.52;;;1.42;;
21299;SDS011;10809;49.476;11.016;2023-05-07T09:42:22;1.45;;;1.35;;
21299;SDS011;10809;49.476;11.016;2023-05-07T09:44:55;2.72;;;1.35;;
21299;SDS011;10809;49.476;11.016;2023-05-07T09:47:29;1.60;;;1.50;;
21299;SDS011;10809;49.476;11.016;2023-05-07T09:50:02;1.80;;;1.67;;
21299;SDS011;10809;49.476;11.016;2023-05-07T09:52:38;1.65;;;1.55;;
21299;SDS011;10809;49.476;11.016;2023-05-07T09:55:12;1.65;;;1.50;;
21299;SDS011;10809;49.476;11.016;2023-05-07T09:57:43;1.17;;;1.15;;
21299;SDS011;10809;49.476;11.016;2023-05-07T10:00:16;1.90;;;1.80;;
21299;SDS011;10809;49.476;11.016;2023-05-07T10:02:52;1.60;;;1.50;;
21299;SDS011;10809;49.476;11.016;2023-05-07T10:05:28;1.88;;;1.77;;
21299;SDS011;10809;49.476;11.016;2023-05-07T10:08:01;1.48;;;1.38;;
21299;SDS011;10809;49.476;11.016;2023-05-07T10:10:33;1.85;;;1.73;;
21299;SDS011;10809;49.476;11.016;2023-05-07T10:13:05;1.80;;;1.70;;
21299;SDS011;10809;49.476;11.016;2023-05-07T10:15:41;1.52;;;1.50;;
21299;SDS011;10809;49.476;11.016;2023-05-07T10:18:12;1.77;;;1.67;;
21299;SDS011;10809;49.476;11.016;2023-05-07T10:20:45;5.22;;;1.80;;
21299;SDS011;10809;49.476;11.016;2023-05-07T10:23:19;1.45;;;1.38;;
21299;SDS011;10809;49.476;11.016;2023-05-07T10:25:53;1.58;;;1.48;;
21299;SDS011;10809;49.476;11.016;2023-05-07T10:28:26;1.75;;;1.58;;
21299;SDS011;10809;49.476;11.016;2023-05-07T10:34:09;1.70;;;1.27;;
21299;SDS011;10809;49.476;11.016;2023-05-07T10:36:43;1.42;;;1.23;;
21299;SDS011;10809;49.476;11.016;2023-05-07T10:39:14;1.75;;;1.65;;
21299;SDS011;10809;49.476;11.016;2023-05-07T10:41:45;3.15;;;1.65;;
21299;SDS011;10809;49.476;11.016;2023-05-07T10:44:25;2.33;;;1.63;;
21299;SDS011;10809;49.476;11.016;2023-05-07T10:49:36;1.08;;;1.08;;
21299;SDS011;10809;49.476;11.016;2023-05-07T10:52:17;1.20;;;1.10;;
21299;SDS011;10809;49.476;11.016;2023-05-07T10:57:50;1.20;;;1.15;;
21299;SDS011;10809;49.476;11.016;2023-05-07T11:03:07;1.45;;;1.35;;
21299;SDS011;10809;49.476;11.016;2023-05-07T11:06:08;1.30;;;1.20;;
21299;SDS011;10809;49.476;11.016;2023-05-07T11:17:21;1.30;;;1.05;;
21299;SDS011;10809;49.476;11.016;2023-05-07T11:19:59;1.40;;;1.30;;
21299;SDS011;10809;49.476;11.016;2023-05-07T11:22:52;1.08;;;1.08;;
21299;SDS011;10809;49.476;11.016;2023-05-07T11:25:31;0.70;;;0.70;;
21299;SDS011;10809;49.476;11.016;2023-05-07T11:28:14;1.00;;;1.00;;
21299;SDS011;10809;49.476;11.016;2023-05-07T11:30:52;0.93;;;0.90;;
21299;SDS011;10809;49.476;11.016;2023-05-07T11:33:24;1.00;;;0.98;;
21299;SDS011;10809;49.476;11.016;2023-05-07T11:35:57;1.17;;;1.15;;
21299;SDS011;10809;49.476;11.016;2023-05-07T11:38:35;1.60;;;1.42;;
21299;SDS011;10809;49.476;11.016;2023-05-07T11:41:07;1.23;;;1.20;;
21299;SDS011;10809;49.476;11.016;2023-05-07T11:43:37;1.23;;;0.90;;
21299;SDS011;10809;49.476;11.016;2023-05-07T11:46:10;1.45;;;1.35;;
21299;SDS011;10809;49.476;11.016;2023-05-07T11:48:44;1.52;;;1.42;;
21299;SDS011;10809;49.476;11.016;2023-05-07T11:51:18;1.30;;;1.20;;
21299;SDS011;10809;49.476;11.016;2023-05-07T11:53:49;1.25;;;1.20;;
21299;SDS011;10809;49.476;11.016;2023-05-07T11:56:20;1.00;;;1.00;;
21299;SDS011;10809;49.476;11.016;2023-05-07T11:58:51;1.20;;;1.10;;
21299;SDS011;10809;49.476;11.016;2023-05-07T12:01:22;1.05;;;0.90;;
21299;SDS011;10809;49.476;11.016;2023-05-07T12:03:52;1.08;;;1.08;;
21299;SDS011;10809;49.476;11.016;2023-05-07T12:06:23;1.08;;;1.08;;
21299;SDS011;10809;49.476;11.016;2023-05-07T12:08:54;1.30;;;1.20;;
21299;SDS011;10809;49.476;11.016;2023-05-07T12:11:25;1.23;;;1.10;;
21299;SDS011;10809;49.476;11.016;2023-05-07T12:13:59;1.58;;;1.27;;
21299;SDS011;10809;49.476;11.016;2023-05-07T12:16:29;1.05;;;0.80;;
21299;SDS011;10809;49.476;11.016;2023-05-07T12:19:00;0.80;;;0.80;;
21299;SDS011;10809;49.476;11.016;2023-05-07T12:21:35;1.02;;;1.00;;
21299;SDS011;10809;49.476;11.016;2023-05-07T12:24:05;1.17;;;1.10;;
21299;SDS011;10809;49.476;11.016;2023-05-07T12:26:39;0.85;;;0.70;;
21299;SDS011;10809;49.476;11.016;2023-05-07T12:29:13;1.00;;;1.00;;
21299;SDS011;10809;49.476;11.016;2023-05-07T12:31:44;1.08;;;1.08;;
21299;SDS011;10809;49.476;11.016;2023-05-07T12:34:15;1.02;;;1.00;;
21299;SDS011;10809;49.476;11.016;2023-05-07T12:36:46;1.50;;;1.27;;
21299;SDS011;10809;49.476;11.016;2023-05-07T12:39:20;1.15;;;1.02;;
21299;SDS011;10809;49.476;11.016;2023-05-07T12:41:58;1.17;;;1.02;;
21299;SDS011;10809;49.476;11.016;2023-05-07T12:44:30;1.08;;;1.00;;
21299;SDS011;10809;49.476;11.016;2023-05-07T12:47:02;1.50;;;1.40;;
21299;SDS011;10809;49.476;11.016;2023-05-07T12:49:34;0.93;;;0.93;;
21299;SDS011;10809;49.476;11.016;2023-05-07T12:52:07;1.50;;;1.40;;
21299;SDS011;10809;49.476;11.016;2023-05-07T12:54:38;1.40;;;1.30;;
21299;SDS011;10809;49.476;11.016;2023-05-07T12:57:09;1.40;;;1.30;;
21299;SDS011;10809;49.476;11.016;2023-05-07T12:59:40;1.35;;;1.15;;
21299;SDS011;10809;49.476;11.016;2023-05-07T13:02:14;1.70;;;1.60;;
21299;SDS011;10809;49.476;11.016;2023-05-07T13:04:45;1.50;;;1.40;;
21299;SDS011;10809;49.476;11.016;2023-05-07T13:07:17;1.90;;;1.60;;
21299;SDS011;10809;49.476;11.016;2023-05-07T13:09:48;1.45;;;1.35;;
21299;SDS011;10809;49.476;11.016;2023-05-07T13:12:19;1.02;;;1.02;;
21299;SDS011;10809;49.476;11.016;2023-05-07T13:14:52;1.98;;;1.25;;
21299;SDS011;10809;49.476;11.016;2023-05-07T13:17:23;1.17;;;1.10;;
21299;SDS011;10809;49.476;11.016;2023-05-07T13:19:54;1.15;;;1.05;;
21299;SDS011;10809;49.476;11.016;2023-05-07T13:22:24;1.60;;;1.25;;
21299;SDS011;10809;49.476;11.016;2023-05-07T13:25:01;1.00;;;1.00;;
21299;SDS011;10809;49.476;11.016;2023-05-07T13:27:35;1.08;;;1.00;;
21299;SDS011;10809;49.476;11.016;2023-05-07T13:30:13;1.00;;;1.00;;
21299;SDS011;10809;49.476;11.016;2023-05-07T13:32:55;0.90;;;0.90;;
21299;SDS011;10809;49.476;11.016;2023-05-07T13:35:29;0.95;;;0.95;;
21299;SDS011;10809;49.476;11.016;2023-05-07T13:38:04;1.10;;;1.10;;
21299;SDS011;10809;49.476;11.016;2023-05-07T13:40:43;1.10;;;1.00;;
21299;SDS011;10809;49.476;11.016;2023-05-07T13:43:14;1.00;;;1.00;;
21299;SDS011;10809;49.476;11.016;2023-05-07T13:45:45;1.13;;;1.02;;
21299;SDS011;10809;49.476;11.016;2023-05-07T13:48:16;1.25;;;1.15;;
21299;SDS011;10809;49.476;11.016;2023-05-07T13:50:49;1.30;;;1.20;;
21299;SDS011;10809;49.476;11.016;2023-05-07T13:53:21;1.00;;;1.00;;
21299;SDS011;10809;49.476;11.016;2023-05-07T13:56:09;0.90;;;0.90;;
21299;SDS011;10809;49.476;11.016;2023-05-07T13:58:45;0.90;;;0.90;;
21299;SDS011;10809;49.476;11.016;2023-05-07T14:01:15;1.20;;;1.10;;
21299;SDS011;10809;49.476;11.016;2023-05-07T14:03:52;0.80;;;0.80;;
21299;SDS011;10809;49.476;11.016;2023-05-07T14:06:25;0.90;;;0.90;;
21299;SDS011;10809;49.476;11.016;2023-05-07T14:08:56;1.80;;;1.52;;
21299;SDS011;10809;49.476;11.016;2023-05-07T14:11:28;1.27;;;1.27;;
21299;SDS011;10809;49.476;11.016;2023-05-07T14:13:58;1.33;;;1.10;;
21299;SDS011;10809;49.476;11.016;2023-05-07T14:16:29;1.02;;;1.02;;
21299;SDS011;10809;49.476;11.016;2023-05-07T14:19:02;1.50;;;1.35;;
21299;SDS011;10809;49.476;11.016;2023-05-07T14:21:33;1.05;;;1.00;;
21299;SDS011;10809;49.476;11.016;2023-05-07T14:24:04;1.00;;;1.00;;
21299;SDS011;10809;49.476;11.016;2023-05-07T14:26:51;1.00;;;0.95;;
21299;SDS011;10809;49.476;11.016;2023-05-07T14:29:22;0.93;;;0.93;;
21299;SDS011;10809;49.476;11.016;2023-05-07T14:31:56;0.90;;;0.90;;
21299;SDS011;10809;49.476;11.016;2023-05-07T14:34:26;2.05;;;1.85;;
21299;SDS011;10809;49.476;11.016;2023-05-07T14:36:57;1.35;;;1.30;;
21299;SDS011;10809;49.476;11.016;2023-05-07T14:39:36;2.20;;;1.38;;
21299;SDS011;10809;49.476;11.016;2023-05-07T14:42:13;1.30;;;1.20;;
21299;SDS011;10809;49.476;11.016;2023-05-07T14:44:47;1.50;;;1.40;;
21299;SDS011;10809;49.476;11.016;2023-05-07T14:47:21;1.50;;;1.40;;
21299;SDS011;10809;49.476;11.016;2023-05-07T14:49:55;2.00;;;1.38;;
21299;SDS011;10809;49.476;11.016;2023-05-07T14:52:27;1.40;;;1.30;;
21299;SDS011;10809;49.476;11.016;2023-05-07T14:55:01;1.50;;;1.40;;
21299;SDS011;10809;49.476;11.016;2023-05-07T14:57:35;1.45;;;1.35;;
21299;SDS011;10809;49.476;11.016;2023-05-07T15:00:09;1.20;;;1.20;;
21299;SDS011;10809;49.476;11.016;2023-05-07T15:03:09;6.85;;;1.70;;
21299;SDS011;10809;49.476;11.016;2023-05-07T15:05:40;1.80;;;1.25;;
21299;SDS011;10809;49.476;11.016;2023-05-07T15:08:11;2.28;;;1.48;;
21299;SDS011;10809;49.476;11.016;2023-05-07T15:10:42;1.33;;;1.20;;
21299;SDS011;10809;49.476;11.016;2023-05-07T15:13:13;1.45;;;1.35;;
21299;SDS011;10809;49.476;11.016;2023-05-07T15:15:45;1.38;;;1.30;;
21299;SDS011;10809;49.476;11.016;2023-05-07T15:18:16;1.48;;;1.38;;
21299;SDS011;10809;49.476;11.016;2023-05-07T15:20:46;1.75;;;1.35;;
21299;SDS011;10809;49.476;11.016;2023-05-07T15:23:17;1.10;;;1.00;;
21299;SDS011;10809;49.476;11.016;2023-05-07T15:25:51;0.98;;;0.98;;
21299;SDS011;10809;49.476;11.016;2023-05-07T15:28:22;1.27;;;1.20;;
21299;SDS011;10809;49.476;11.016;2023-05-07T15:30:57;1.63;;;1.50;;
21299;SDS011;10809;49.476;11.016;2023-05-07T15:33:33;1.55;;;1.45;;